Gage Information Page
Francis E. Walter Reservoir, PA

Provisional Data Subject to Revision
Francis E. Walter Reservoir, PA
Amber Threshold Elevation:1392 feet
Red Threshold Elevation:1441 feet
Date (ET) Elevation (ft) Storage (ac-ft) Inflow (cfs) Outflow (cfs)
Dec 19, 2014   8:15 am 1301.56 2153 686 811
Dec 19, 2014   7:15 am 1301.66 2164 688 811
Dec 19, 2014   6:15 am 1301.77 2175 692 811
Dec 19, 2014   5:15 am 1301.86 2185 692 811
Dec 19, 2014   4:15 am 1301.97 2196 698 811
Dec 19, 2014   3:15 am 1302.06 2206 699 811
Dec 19, 2014   2:15 am 1302.16 2217 703 811
Dec 19, 2014   1:15 am 1302.26 2227 705 819
Dec 19, 2014 12:15 am 1302.35 2237 709 819
Dec 18, 2014 11:15 pm 1302.44 2247 708 819
Dec 18, 2014 10:15 pm 1302.53 2256 714 819
Dec 18, 2014   9:15 pm 1302.62 2266 718 819
Dec 18, 2014   8:15 pm 1302.70 2275 720 819
Dec 18, 2014   7:15 pm 1302.79 2284 724 819
Dec 18, 2014   6:15 pm 1302.87 2293 727 819
Dec 18, 2014   5:15 pm 1302.96 2303 732 819
Dec 18, 2014   4:15 pm 1303.03 2310 736 819
Dec 18, 2014   3:15 pm 1303.12 2320 752 828
Dec 18, 2014   2:15 pm 1303.18 2327 747 828
Dec 18, 2014   1:15 pm 1303.25 2335 747 828
Dec 18, 2014 12:15 pm 1303.32 2343 747 828
Dec 18, 2014 11:15 am 1303.39 2350 747 828
Dec 18, 2014 10:15 am 1303.46 2358 744 828
Dec 18, 2014   9:15 am 1303.52 2365 743 828
Report Generated Dec 19, 2014 09:24 AM

NWS Web Info
USGS Web Info